sensor_id;sensor_type;location;lat;lon;timestamp;temperature;humidity
7204;DHT22;3643;52.460;13.322;2023-03-26T00:01:33;7.10;99.90
7204;DHT22;3643;52.460;13.322;2023-03-26T00:04:05;7.10;99.90
7204;DHT22;3643;52.460;13.322;2023-03-26T00:06:35;7.10;99.90
7204;DHT22;3643;52.460;13.322;2023-03-26T00:09:07;7.00;99.90
7204;DHT22;3643;52.460;13.322;2023-03-26T00:11:37;7.00;99.90
7204;DHT22;3643;52.460;13.322;2023-03-26T00:14:06;7.00;99.90
7204;DHT22;3643;52.460;13.322;2023-03-26T00:16:35;7.10;99.90
7204;DHT22;3643;52.460;13.322;2023-03-26T00:19:03;7.00;99.90
7204;DHT22;3643;52.460;13.322;2023-03-26T00:21:32;7.00;99.90
7204;DHT22;3643;52.460;13.322;2023-03-26T00:24:02;7.00;99.90
7204;DHT22;3643;52.460;13.322;2023-03-26T00:26:31;7.00;99.90
7204;DHT22;3643;52.460;13.322;2023-03-26T00:29:01;7.00;99.90
7204;DHT22;3643;52.460;13.322;2023-03-26T00:31:30;7.00;99.90
7204;DHT22;3643;52.460;13.322;2023-03-26T00:33:58;6.90;99.90
7204;DHT22;3643;52.460;13.322;2023-03-26T00:36:29;6.90;99.90
7204;DHT22;3643;52.460;13.322;2023-03-26T00:39:01;7.00;99.90
7204;DHT22;3643;52.460;13.322;2023-03-26T00:41:32;6.90;99.90
7204;DHT22;3643;52.460;13.322;2023-03-26T00:44:04;6.90;99.90
7204;DHT22;3643;52.460;13.322;2023-03-26T00:46:33;6.90;99.90
7204;DHT22;3643;52.460;13.322;2023-03-26T00:49:02;7.00;99.90
7204;DHT22;3643;52.460;13.322;2023-03-26T00:51:31;7.00;99.90
7204;DHT22;3643;52.460;13.322;2023-03-26T00:54:01;6.90;99.90
7204;DHT22;3643;52.460;13.322;2023-03-26T00:56:29;7.00;99.90
7204;DHT22;3643;52.460;13.322;2023-03-26T00:58:58;6.90;99.90
7204;DHT22;3643;52.460;13.322;2023-03-26T01:01:29;6.90;99.90
7204;DHT22;3643;52.460;13.322;2023-03-26T01:04:20;7.00;99.90
7204;DHT22;3643;52.460;13.322;2023-03-26T01:06:55;7.00;99.90
7204;DHT22;3643;52.460;13.322;2023-03-26T01:09:30;7.00;99.90
7204;DHT22;3643;52.460;13.322;2023-03-26T01:12:01;7.00;99.90
7204;DHT22;3643;52.460;13.322;2023-03-26T01:14:30;7.00;99.90
7204;DHT22;3643;52.460;13.322;2023-03-26T01:17:01;6.90;99.90
7204;DHT22;3643;52.460;13.322;2023-03-26T01:19:35;6.90;99.90
7204;DHT22;3643;52.460;13.322;2023-03-26T01:22:06;6.90;99.90
7204;DHT22;3643;52.460;13.322;2023-03-26T01:24:39;6.90;99.90
7204;DHT22;3643;52.460;13.322;2023-03-26T01:27:18;7.00;99.90
7204;DHT22;3643;52.460;13.322;2023-03-26T01:29:53;6.90;99.90
7204;DHT22;3643;52.460;13.322;2023-03-26T01:32:44;6.90;99.90
7204;DHT22;3643;52.460;13.322;2023-03-26T01:35:23;6.80;99.90
7204;DHT22;3643;52.460;13.322;2023-03-26T01:38:01;6.80;99.90
7204;DHT22;3643;52.460;13.322;2023-03-26T01:40:41;6.80;99.90
7204;DHT22;3643;52.460;13.322;2023-03-26T01:43:20;6.70;99.90
7204;DHT22;3643;52.460;13.322;2023-03-26T01:45:53;6.60;99.90
7204;DHT22;3643;52.460;13.322;2023-03-26T01:48:29;6.60;99.90
7204;DHT22;3643;52.460;13.322;2023-03-26T01:50:58;6.60;99.90
7204;DHT22;3643;52.460;13.322;2023-03-26T01:53:27;6.50;99.90
7204;DHT22;3643;52.460;13.322;2023-03-26T01:56:07;6.50;99.90
7204;DHT22;3643;52.460;13.322;2023-03-26T01:58:47;6.60;99.90
7204;DHT22;3643;52.460;13.322;2023-03-26T02:01:24;6.50;99.90
7204;DHT22;3643;52.460;13.322;2023-03-26T02:04:01;6.50;99.90
7204;DHT22;3643;52.460;13.322;2023-03-26T02:06:39;6.40;99.90
7204;DHT22;3643;52.460;13.322;2023-03-26T02:09:13;6.40;99.90
7204;DHT22;3643;52.460;13.322;2023-03-26T02:11:46;6.40;99.90
7204;DHT22;3643;52.460;13.322;2023-03-26T02:14:16;6.40;99.90
7204;DHT22;3643;52.460;13.322;2023-03-26T02:16:44;6.40;99.90
7204;DHT22;3643;52.460;13.322;2023-03-26T02:19:14;6.40;99.90
7204;DHT22;3643;52.460;13.322;2023-03-26T02:21:48;6.40;99.90
7204;DHT22;3643;52.460;13.322;2023-03-26T02:24:18;6.30;99.90
7204;DHT22;3643;52.460;13.322;2023-03-26T02:26:48;6.30;99.90
7204;DHT22;3643;52.460;13.322;2023-03-26T02:29:16;6.30;99.90
7204;DHT22;3643;52.460;13.322;2023-03-26T02:31:47;5.40;99.90
7204;DHT22;3643;52.460;13.322;2023-03-26T02:34:16;6.20;99.90
7204;DHT22;3643;52.460;13.322;2023-03-26T02:36:44;6.20;99.90
7204;DHT22;3643;52.460;13.322;2023-03-26T02:39:14;6.20;99.90
7204;DHT22;3643;52.460;13.322;2023-03-26T02:41:43;6.30;99.90
7204;DHT22;3643;52.460;13.322;2023-03-26T02:44:13;6.30;99.90
7204;DHT22;3643;52.460;13.322;2023-03-26T02:46:42;6.20;99.90
7204;DHT22;3643;52.460;13.322;2023-03-26T02:49:10;6.30;99.90
7204;DHT22;3643;52.460;13.322;2023-03-26T02:51:39;6.20;99.90
7204;DHT22;3643;52.460;13.322;2023-03-26T02:54:07;6.20;99.90
7204;DHT22;3643;52.460;13.322;2023-03-26T02:56:36;6.20;99.90
7204;DHT22;3643;52.460;13.322;2023-03-26T02:59:05;6.20;99.90
7204;DHT22;3643;52.460;13.322;2023-03-26T03:01:35;6.20;99.90
7204;DHT22;3643;52.460;13.322;2023-03-26T03:04:09;6.20;99.90
7204;DHT22;3643;52.460;13.322;2023-03-26T03:06:38;6.20;99.90
7204;DHT22;3643;52.460;13.322;2023-03-26T03:09:07;6.20;99.90
7204;DHT22;3643;52.460;13.322;2023-03-26T03:11:37;6.30;99.90
7204;DHT22;3643;52.460;13.322;2023-03-26T03:14:05;6.30;99.90
7204;DHT22;3643;52.460;13.322;2023-03-26T03:16:35;6.30;99.90
7204;DHT22;3643;52.460;13.322;2023-03-26T03:19:04;6.40;99.90
7204;DHT22;3643;52.460;13.322;2023-03-26T03:21:33;6.40;99.90
7204;DHT22;3643;52.460;13.322;2023-03-26T03:24:01;6.40;99.90
7204;DHT22;3643;52.460;13.322;2023-03-26T03:26:30;6.50;99.90
7204;DHT22;3643;52.460;13.322;2023-03-26T03:29:00;6.50;99.90
7204;DHT22;3643;52.460;13.322;2023-03-26T03:31:28;6.50;99.90
7204;DHT22;3643;52.460;13.322;2023-03-26T03:33:59;6.50;99.90
7204;DHT22;3643;52.460;13.322;2023-03-26T03:36:27;6.50;99.90
7204;DHT22;3643;52.460;13.322;2023-03-26T03:38:56;6.50;99.90
7204;DHT22;3643;52.460;13.322;2023-03-26T03:41:28;6.50;99.90
7204;DHT22;3643;52.460;13.322;2023-03-26T03:43:57;6.50;99.90
7204;DHT22;3643;52.460;13.322;2023-03-26T03:46:27;6.50;99.90
7204;DHT22;3643;52.460;13.322;2023-03-26T03:48:56;6.50;99.90
7204;DHT22;3643;52.460;13.322;2023-03-26T03:51:26;6.50;99.90
7204;DHT22;3643;52.460;13.322;2023-03-26T03:53:55;6.50;99.90
7204;DHT22;3643;52.460;13.322;2023-03-26T03:56:24;6.50;99.90
7204;DHT22;3643;52.460;13.322;2023-03-26T03:58:52;6.50;99.90
7204;DHT22;3643;52.460;13.322;2023-03-26T04:01:21;6.40;99.90
7204;DHT22;3643;52.460;13.322;2023-03-26T04:03:50;6.50;99.90
7204;DHT22;3643;52.460;13.322;2023-03-26T04:06:18;6.40;99.90
7204;DHT22;3643;52.460;13.322;2023-03-26T04:08:48;6.40;99.90
7204;DHT22;3643;52.460;13.322;2023-03-26T04:11:16;6.40;99.90
7204;DHT22;3643;52.460;13.322;2023-03-26T04:13:44;6.40;99.90
7204;DHT22;3643;52.460;13.322;2023-03-26T04:16:12;6.50;99.90
7204;DHT22;3643;52.460;13.322;2023-03-26T04:18:41;6.50;99.90
7204;DHT22;3643;52.460;13.322;2023-03-26T04:21:11;6.40;99.90
7204;DHT22;3643;52.460;13.322;2023-03-26T04:23:41;6.40;99.90
7204;DHT22;3643;52.460;13.322;2023-03-26T04:26:14;6.40;99.90
7204;DHT22;3643;52.460;13.322;2023-03-26T04:28:47;6.30;99.90
7204;DHT22;3643;52.460;13.322;2023-03-26T04:31:18;6.40;99.90
7204;DHT22;3643;52.460;13.322;2023-03-26T04:33:51;6.30;99.90
7204;DHT22;3643;52.460;13.322;2023-03-26T04:36:24;6.30;99.90
7204;DHT22;3643;52.460;13.322;2023-03-26T04:38:54;6.40;99.90
7204;DHT22;3643;52.460;13.322;2023-03-26T04:41:25;6.30;99.90
7204;DHT22;3643;52.460;13.322;2023-03-26T04:43:54;6.30;99.90
7204;DHT22;3643;52.460;13.322;2023-03-26T04:46:22;6.30;99.90
7204;DHT22;3643;52.460;13.322;2023-03-26T04:48:52;6.30;99.90
7204;DHT22;3643;52.460;13.322;2023-03-26T04:51:23;6.30;99.90
7204;DHT22;3643;52.460;13.322;2023-03-26T04:53:54;6.30;99.90
7204;DHT22;3643;52.460;13.322;2023-03-26T04:56:37;6.50;99.90
7204;DHT22;3643;52.460;13.322;2023-03-26T04:59:10;6.20;99.90
7204;DHT22;3643;52.460;13.322;2023-03-26T05:01:40;6.20;99.90
7204;DHT22;3643;52.460;13.322;2023-03-26T05:04:12;6.20;99.90
7204;DHT22;3643;52.460;13.322;2023-03-26T05:06:40;6.30;99.90
7204;DHT22;3643;52.460;13.322;2023-03-26T05:09:09;6.30;99.90
7204;DHT22;3643;52.460;13.322;2023-03-26T05:11:38;6.30;99.90
7204;DHT22;3643;52.460;13.322;2023-03-26T05:14:07;6.30;99.90
7204;DHT22;3643;52.460;13.322;2023-03-26T05:16:35;6.40;99.90
7204;DHT22;3643;52.460;13.322;2023-03-26T05:19:05;6.50;99.90
7204;DHT22;3643;52.460;13.322;2023-03-26T05:21:34;6.40;99.90
7204;DHT22;3643;52.460;13.322;2023-03-26T05:24:02;6.40;99.90
7204;DHT22;3643;52.460;13.322;2023-03-26T05:26:32;6.40;99.90
7204;DHT22;3643;52.460;13.322;2023-03-26T05:29:02;6.50;99.90
7204;DHT22;3643;52.460;13.322;2023-03-26T05:31:30;6.60;99.90
7204;DHT22;3643;52.460;13.322;2023-03-26T05:33:58;6.40;99.90
7204;DHT22;3643;52.460;13.322;2023-03-26T05:36:27;6.40;99.90
7204;DHT22;3643;52.460;13.322;2023-03-26T05:38:55;6.60;99.90
7204;DHT22;3643;52.460;13.322;2023-03-26T05:41:23;6.60;99.90
7204;DHT22;3643;52.460;13.322;2023-03-26T05:43:51;6.50;99.90
7204;DHT22;3643;52.460;13.322;2023-03-26T05:46:21;6.60;99.90
7204;DHT22;3643;52.460;13.322;2023-03-26T05:48:49;6.60;99.90
7204;DHT22;3643;52.460;13.322;2023-03-26T05:51:17;6.70;99.90
7204;DHT22;3643;52.460;13.322;2023-03-26T05:53:46;6.70;99.90
7204;DHT22;3643;52.460;13.322;2023-03-26T05:56:14;6.70;99.90
7204;DHT22;3643;52.460;13.322;2023-03-26T05:58:42;6.70;99.90
7204;DHT22;3643;52.460;13.322;2023-03-26T06:01:12;6.70;99.90
7204;DHT22;3643;52.460;13.322;2023-03-26T06:03:44;6.70;99.90
7204;DHT22;3643;52.460;13.322;2023-03-26T06:06:14;6.70;99.90
7204;DHT22;3643;52.460;13.322;2023-03-26T06:08:43;6.80;99.90
7204;DHT22;3643;52.460;13.322;2023-03-26T06:11:28;6.80;99.90
7204;DHT22;3643;52.460;13.322;2023-03-26T06:13:56;6.80;99.90
7204;DHT22;3643;52.460;13.322;2023-03-26T06:16:24;6.80;99.90
7204;DHT22;3643;52.460;13.322;2023-03-26T06:18:56;6.80;99.90
7204;DHT22;3643;52.460;13.322;2023-03-26T06:21:24;6.80;99.90
7204;DHT22;3643;52.460;13.322;2023-03-26T06:23:53;6.90;99.90
7204;DHT22;3643;52.460;13.322;2023-03-26T06:26:21;6.90;99.90
7204;DHT22;3643;52.460;13.322;2023-03-26T06:28:49;7.00;99.90
7204;DHT22;3643;52.460;13.322;2023-03-26T06:31:18;7.00;99.90
7204;DHT22;3643;52.460;13.322;2023-03-26T06:33:46;7.10;99.90
7204;DHT22;3643;52.460;13.322;2023-03-26T06:36:16;7.20;99.90
7204;DHT22;3643;52.460;13.322;2023-03-26T06:38:44;7.20;99.90
7204;DHT22;3643;52.460;13.322;2023-03-26T06:41:12;7.20;99.90
7204;DHT22;3643;52.460;13.322;2023-03-26T06:43:41;7.20;99.90
7204;DHT22;3643;52.460;13.322;2023-03-26T06:46:10;7.20;99.90
7204;DHT22;3643;52.460;13.322;2023-03-26T06:48:39;7.10;99.90
7204;DHT22;3643;52.460;13.322;2023-03-26T06:51:08;7.20;99.90
7204;DHT22;3643;52.460;13.322;2023-03-26T06:53:38;7.20;99.90
7204;DHT22;3643;52.460;13.322;2023-03-26T06:56:07;7.20;99.90
7204;DHT22;3643;52.460;13.322;2023-03-26T06:58:35;7.30;99.90
7204;DHT22;3643;52.460;13.322;2023-03-26T07:01:04;8.10;99.90
7204;DHT22;3643;52.460;13.322;2023-03-26T07:03:32;7.30;99.90
7204;DHT22;3643;52.460;13.322;2023-03-26T07:06:00;7.40;99.90
7204;DHT22;3643;52.460;13.322;2023-03-26T07:08:29;7.40;99.90
7204;DHT22;3643;52.460;13.322;2023-03-26T07:10:59;7.90;99.90
7204;DHT22;3643;52.460;13.322;2023-03-26T07:13:27;7.80;99.90
7204;DHT22;3643;52.460;13.322;2023-03-26T07:15:55;8.00;99.90
7204;DHT22;3643;52.460;13.322;2023-03-26T07:18:23;8.30;99.90
7204;DHT22;3643;52.460;13.322;2023-03-26T07:20:52;8.20;99.90
7204;DHT22;3643;52.460;13.322;2023-03-26T07:23:21;8.50;99.90
7204;DHT22;3643;52.460;13.322;2023-03-26T07:25:49;8.70;99.90
7204;DHT22;3643;52.460;13.322;2023-03-26T07:28:24;8.70;99.90
7204;DHT22;3643;52.460;13.322;2023-03-26T07:30:59;8.80;99.90
7204;DHT22;3643;52.460;13.322;2023-03-26T07:33:36;8.60;99.90
7204;DHT22;3643;52.460;13.322;2023-03-26T07:36:16;8.40;99.90
7204;DHT22;3643;52.460;13.322;2023-03-26T07:38:54;8.40;99.90
7204;DHT22;3643;52.460;13.322;2023-03-26T07:41:32;8.30;99.90
7204;DHT22;3643;52.460;13.322;2023-03-26T07:44:30;8.30;99.90
7204;DHT22;3643;52.460;13.322;2023-03-26T07:47:08;7.90;99.90
7204;DHT22;3643;52.460;13.322;2023-03-26T07:49:38;7.90;99.90
7204;DHT22;3643;52.460;13.322;2023-03-26T07:52:09;7.80;99.90
7204;DHT22;3643;52.460;13.322;2023-03-26T07:54:38;7.80;99.90
7204;DHT22;3643;52.460;13.322;2023-03-26T07:57:12;7.90;99.90
7204;DHT22;3643;52.460;13.322;2023-03-26T07:59:49;7.80;99.90
7204;DHT22;3643;52.460;13.322;2023-03-26T08:02:38;7.90;99.90
7204;DHT22;3643;52.460;13.322;2023-03-26T08:05:13;8.00;99.90
7204;DHT22;3643;52.460;13.322;2023-03-26T08:07:59;7.90;99.90
7204;DHT22;3643;52.460;13.322;2023-03-26T08:10:34;7.80;99.90
7204;DHT22;3643;52.460;13.322;2023-03-26T08:13:20;7.80;99.90
7204;DHT22;3643;52.460;13.322;2023-03-26T08:15:56;7.50;99.90
7204;DHT22;3643;52.460;13.322;2023-03-26T08:18:37;7.40;99.90
7204;DHT22;3643;52.460;13.322;2023-03-26T08:21:09;7.50;99.90
7204;DHT22;3643;52.460;13.322;2023-03-26T08:23:50;7.40;99.90
7204;DHT22;3643;52.460;13.322;2023-03-26T08:26:30;7.50;99.90
7204;DHT22;3643;52.460;13.322;2023-03-26T08:29:08;7.50;99.90
7204;DHT22;3643;52.460;13.322;2023-03-26T08:31:40;7.80;99.90
7204;DHT22;3643;52.460;13.322;2023-03-26T08:34:12;7.80;99.90
7204;DHT22;3643;52.460;13.322;2023-03-26T08:36:40;7.90;99.90
7204;DHT22;3643;52.460;13.322;2023-03-26T08:39:08;7.90;99.90
7204;DHT22;3643;52.460;13.322;2023-03-26T09:00:41;8.60;99.90
7204;DHT22;3643;52.460;13.322;2023-03-26T09:06:49;8.70;99.90
7204;DHT22;3643;52.460;13.322;2023-03-26T09:09:55;8.90;99.90
7204;DHT22;3643;52.460;13.322;2023-03-26T09:12:50;8.60;99.90
7204;DHT22;3643;52.460;13.322;2023-03-26T09:25:24;9.20;99.90
7204;DHT22;3643;52.460;13.322;2023-03-26T09:28:09;9.30;99.90
7204;DHT22;3643;52.460;13.322;2023-03-26T09:31:09;9.00;99.90
7204;DHT22;3643;52.460;13.322;2023-03-26T09:33:54;8.80;99.90
7204;DHT22;3643;52.460;13.322;2023-03-26T09:36:37;9.00;99.90
7204;DHT22;3643;52.460;13.322;2023-03-26T09:39:15;9.30;99.90
7204;DHT22;3643;52.460;13.322;2023-03-26T09:41:56;9.40;99.90
7204;DHT22;3643;52.460;13.322;2023-03-26T09:47:41;9.60;99.90
7204;DHT22;3643;52.460;13.322;2023-03-26T09:56:27;9.50;99.90
7204;DHT22;3643;52.460;13.322;2023-03-26T09:59:12;9.80;99.90
7204;DHT22;3643;52.460;13.322;2023-03-26T10:01:51;9.90;99.90
7204;DHT22;3643;52.460;13.322;2023-03-26T10:04:49;10.10;99.90
7204;DHT22;3643;52.460;13.322;2023-03-26T10:07:40;10.30;99.90
7204;DHT22;3643;52.460;13.322;2023-03-26T10:10:20;10.50;99.90
7204;DHT22;3643;52.460;13.322;2023-03-26T10:12:57;10.70;99.90
7204;DHT22;3643;52.460;13.322;2023-03-26T10:15:57;10.70;99.90
7204;DHT22;3643;52.460;13.322;2023-03-26T10:18:35;10.60;99.90
7204;DHT22;3643;52.460;13.322;2023-03-26T10:21:08;10.70;99.90
7204;DHT22;3643;52.460;13.322;2023-03-26T10:23:49;11.00;99.90
7204;DHT22;3643;52.460;13.322;2023-03-26T10:26:35;10.90;99.90
7204;DHT22;3643;52.460;13.322;2023-03-26T10:32:44;10.80;99.90
7204;DHT22;3643;52.460;13.322;2023-03-26T10:35:22;10.70;99.90
7204;DHT22;3643;52.460;13.322;2023-03-26T10:38:04;10.70;99.90
7204;DHT22;3643;52.460;13.322;2023-03-26T10:40:47;10.70;99.90
7204;DHT22;3643;52.460;13.322;2023-03-26T10:43:48;10.60;99.90
7204;DHT22;3643;52.460;13.322;2023-03-26T10:49:44;10.80;99.90
7204;DHT22;3643;52.460;13.322;2023-03-26T10:52:19;10.90;99.90
7204;DHT22;3643;52.460;13.322;2023-03-26T10:54:54;11.00;99.90
7204;DHT22;3643;52.460;13.322;2023-03-26T10:57:34;11.00;99.90
7204;DHT22;3643;52.460;13.322;2023-03-26T11:00:18;11.00;99.90
7204;DHT22;3643;52.460;13.322;2023-03-26T11:03:11;11.00;99.90
7204;DHT22;3643;52.460;13.322;2023-03-26T11:05:53;11.10;99.90
7204;DHT22;3643;52.460;13.322;2023-03-26T11:08:30;11.20;99.90
7204;DHT22;3643;52.460;13.322;2023-03-26T11:11:09;11.20;99.90
7204;DHT22;3643;52.460;13.322;2023-03-26T11:13:48;11.30;99.90
7204;DHT22;3643;52.460;13.322;2023-03-26T11:16:24;11.60;99.90
7204;DHT22;3643;52.460;13.322;2023-03-26T11:18:58;11.70;99.90
7204;DHT22;3643;52.460;13.322;2023-03-26T11:21:38;12.00;99.90
7204;DHT22;3643;52.460;13.322;2023-03-26T11:27:09;12.30;99.90
7204;DHT22;3643;52.460;13.322;2023-03-26T11:29:48;12.20;99.90
7204;DHT22;3643;52.460;13.322;2023-03-26T11:32:21;12.10;99.90
7204;DHT22;3643;52.460;13.322;2023-03-26T11:34:57;12.10;99.90
7204;DHT22;3643;52.460;13.322;2023-03-26T11:37:31;12.00;99.90
7204;DHT22;3643;52.460;13.322;2023-03-26T11:40:03;11.90;99.90
7204;DHT22;3643;52.460;13.322;2023-03-26T11:42:34;12.00;99.90
7204;DHT22;3643;52.460;13.322;2023-03-26T11:45:05;11.90;99.90
7204;DHT22;3643;52.460;13.322;2023-03-26T11:47:38;12.10;99.90
7204;DHT22;3643;52.460;13.322;2023-03-26T11:50:14;12.30;99.90
7204;DHT22;3643;52.460;13.322;2023-03-26T11:52:44;12.30;99.90
7204;DHT22;3643;52.460;13.322;2023-03-26T11:55:13;12.40;99.90
7204;DHT22;3643;52.460;13.322;2023-03-26T11:57:48;12.30;99.90
7204;DHT22;3643;52.460;13.322;2023-03-26T12:00:19;12.30;99.90
7204;DHT22;3643;52.460;13.322;2023-03-26T12:02:49;12.40;99.90
7204;DHT22;3643;52.460;13.322;2023-03-26T12:05:23;12.40;99.90
7204;DHT22;3643;52.460;13.322;2023-03-26T12:07:55;12.40;99.90
7204;DHT22;3643;52.460;13.322;2023-03-26T12:10:27;12.30;99.90
7204;DHT22;3643;52.460;13.322;2023-03-26T12:12:59;12.40;99.90
7204;DHT22;3643;52.460;13.322;2023-03-26T12:15:28;12.40;99.90
7204;DHT22;3643;52.460;13.322;2023-03-26T12:17:58;12.50;99.90
7204;DHT22;3643;52.460;13.322;2023-03-26T12:20:33;12.50;99.90
7204;DHT22;3643;52.460;13.322;2023-03-26T12:23:11;12.60;99.90
7204;DHT22;3643;52.460;13.322;2023-03-26T12:26:04;12.50;99.90
7204;DHT22;3643;52.460;13.322;2023-03-26T12:28:32;12.40;99.90
7204;DHT22;3643;52.460;13.322;2023-03-26T12:31:02;12.30;99.90
7204;DHT22;3643;52.460;13.322;2023-03-26T12:33:34;12.50;99.90
7204;DHT22;3643;52.460;13.322;2023-03-26T12:36:17;12.50;99.90
7204;DHT22;3643;52.460;13.322;2023-03-26T12:38:47;12.70;99.90
7204;DHT22;3643;52.460;13.322;2023-03-26T12:41:39;12.60;99.90
7204;DHT22;3643;52.460;13.322;2023-03-26T12:44:30;12.40;99.90
7204;DHT22;3643;52.460;13.322;2023-03-26T12:47:20;12.50;99.90
7204;DHT22;3643;52.460;13.322;2023-03-26T12:50:12;12.50;99.90
7204;DHT22;3643;52.460;13.322;2023-03-26T12:52:56;12.30;99.90
7204;DHT22;3643;52.460;13.322;2023-03-26T12:55:52;12.40;99.90
7204;DHT22;3643;52.460;13.322;2023-03-26T12:58:41;12.30;99.90
7204;DHT22;3643;52.460;13.322;2023-03-26T13:01:22;12.30;99.90
7204;DHT22;3643;52.460;13.322;2023-03-26T13:04:26;12.30;99.90
7204;DHT22;3643;52.460;13.322;2023-03-26T13:07:03;12.40;99.90
7204;DHT22;3643;52.460;13.322;2023-03-26T13:09:43;12.40;99.90
7204;DHT22;3643;52.460;13.322;2023-03-26T13:12:28;12.40;99.90
7204;DHT22;3643;52.460;13.322;2023-03-26T13:15:16;12.40;99.90
7204;DHT22;3643;52.460;13.322;2023-03-26T13:17:57;12.30;99.90
7204;DHT22;3643;52.460;13.322;2023-03-26T13:20:33;12.30;99.90
7204;DHT22;3643;52.460;13.322;2023-03-26T13:23:09;12.20;99.90
7204;DHT22;3643;52.460;13.322;2023-03-26T13:25:45;12.10;99.90
7204;DHT22;3643;52.460;13.322;2023-03-26T13:28:22;12.00;99.90
7204;DHT22;3643;52.460;13.322;2023-03-26T13:31:01;12.10;99.90
7204;DHT22;3643;52.460;13.322;2023-03-26T13:33:45;12.20;99.90
7204;DHT22;3643;52.460;13.322;2023-03-26T13:36:20;12.40;99.90
7204;DHT22;3643;52.460;13.322;2023-03-26T13:39:12;12.50;99.90
7204;DHT22;3643;52.460;13.322;2023-03-26T13:42:02;12.60;99.90
7204;DHT22;3643;52.460;13.322;2023-03-26T13:44:45;12.70;99.90
7204;DHT22;3643;52.460;13.322;2023-03-26T13:47:18;12.60;99.90
7204;DHT22;3643;52.460;13.322;2023-03-26T13:49:51;12.60;99.90
7204;DHT22;3643;52.460;13.322;2023-03-26T13:52:23;12.70;99.90
7204;DHT22;3643;52.460;13.322;2023-03-26T13:54:56;12.70;99.90
7204;DHT22;3643;52.460;13.322;2023-03-26T13:57:33;12.90;99.90
7204;DHT22;3643;52.460;13.322;2023-03-26T14:00:05;12.90;99.90
7204;DHT22;3643;52.460;13.322;2023-03-26T14:02:39;12.90;99.90
7204;DHT22;3643;52.460;13.322;2023-03-26T14:05:12;12.90;99.90
7204;DHT22;3643;52.460;13.322;2023-03-26T14:07:44;13.00;99.90
7204;DHT22;3643;52.460;13.322;2023-03-26T14:10:17;13.10;99.90
7204;DHT22;3643;52.460;13.322;2023-03-26T14:12:54;12.90;99.90
7204;DHT22;3643;52.460;13.322;2023-03-26T14:15:29;12.90;99.90
7204;DHT22;3643;52.460;13.322;2023-03-26T14:18:05;12.90;99.90
7204;DHT22;3643;52.460;13.322;2023-03-26T14:21:01;12.70;99.90
7204;DHT22;3643;52.460;13.322;2023-03-26T14:24:01;12.60;99.90
7204;DHT22;3643;52.460;13.322;2023-03-26T14:26:55;12.50;99.90
7204;DHT22;3643;52.460;13.322;2023-03-26T14:29:43;12.40;99.90
7204;DHT22;3643;52.460;13.322;2023-03-26T14:32:46;12.30;99.90
7204;DHT22;3643;52.460;13.322;2023-03-26T14:35:30;12.20;99.90
7204;DHT22;3643;52.460;13.322;2023-03-26T14:38:46;12.10;99.90
7204;DHT22;3643;52.460;13.322;2023-03-26T14:41:23;12.20;99.90
7204;DHT22;3643;52.460;13.322;2023-03-26T14:47:01;12.20;99.90
7204;DHT22;3643;52.460;13.322;2023-03-26T14:49:57;12.10;99.90
7204;DHT22;3643;52.460;13.322;2023-03-26T14:52:42;12.10;99.90
7204;DHT22;3643;52.460;13.322;2023-03-26T14:55:17;12.10;99.90
7204;DHT22;3643;52.460;13.322;2023-03-26T14:58:07;12.20;99.90
7204;DHT22;3643;52.460;13.322;2023-03-26T15:01:19;12.20;99.90
7204;DHT22;3643;52.460;13.322;2023-03-26T15:04:26;12.10;99.90
7204;DHT22;3643;52.460;13.322;2023-03-26T15:10:25;11.80;99.90
7204;DHT22;3643;52.460;13.322;2023-03-26T15:13:14;11.80;99.90
7204;DHT22;3643;52.460;13.322;2023-03-26T15:25:37;11.50;99.90
7204;DHT22;3643;52.460;13.322;2023-03-26T15:31:49;11.40;99.90
7204;DHT22;3643;52.460;13.322;2023-03-26T15:38:03;11.20;99.90
7204;DHT22;3643;52.460;13.322;2023-03-26T15:40:50;11.20;99.90
7204;DHT22;3643;52.460;13.322;2023-03-26T15:43:27;11.20;99.90
7204;DHT22;3643;52.460;13.322;2023-03-26T15:46:22;11.10;99.90
7204;DHT22;3643;52.460;13.322;2023-03-26T15:49:00;11.10;99.90
7204;DHT22;3643;52.460;13.322;2023-03-26T15:51:47;11.10;99.90
7204;DHT22;3643;52.460;13.322;2023-03-26T15:54:24;11.00;99.90
7204;DHT22;3643;52.460;13.322;2023-03-26T15:57:18;10.90;99.90
7204;DHT22;3643;52.460;13.322;2023-03-26T15:59:58;10.80;99.90
7204;DHT22;3643;52.460;13.322;2023-03-26T16:02:42;10.70;99.90
7204;DHT22;3643;52.460;13.322;2023-03-26T16:05:30;10.70;99.90
7204;DHT22;3643;52.460;13.322;2023-03-26T16:08:11;10.70;99.90
7204;DHT22;3643;52.460;13.322;2023-03-26T16:10:47;10.70;99.90
7204;DHT22;3643;52.460;13.322;2023-03-26T16:13:40;10.70;99.90
7204;DHT22;3643;52.460;13.322;2023-03-26T16:16:49;10.70;99.90
7204;DHT22;3643;52.460;13.322;2023-03-26T16:19:45;10.70;99.90
7204;DHT22;3643;52.460;13.322;2023-03-26T16:22:34;10.60;99.90
7204;DHT22;3643;52.460;13.322;2023-03-26T16:25:21;10.60;99.90
7204;DHT22;3643;52.460;13.322;2023-03-26T16:31:24;10.40;99.90
7204;DHT22;3643;52.460;13.322;2023-03-26T16:34:40;10.40;99.90
7204;DHT22;3643;52.460;13.322;2023-03-26T16:37:38;10.40;99.90
7204;DHT22;3643;52.460;13.322;2023-03-26T16:40:54;10.30;99.90
7204;DHT22;3643;52.460;13.322;2023-03-26T16:43:42;10.20;99.90
7204;DHT22;3643;52.460;13.322;2023-03-26T16:46:26;10.10;99.90
7204;DHT22;3643;52.460;13.322;2023-03-26T16:48:59;10.00;99.90
7204;DHT22;3643;52.460;13.322;2023-03-26T16:51:45;9.90;99.90
7204;DHT22;3643;52.460;13.322;2023-03-26T16:54:22;9.80;99.90
7204;DHT22;3643;52.460;13.322;2023-03-26T16:56:55;9.70;99.90
7204;DHT22;3643;52.460;13.322;2023-03-26T16:59:41;9.60;99.90
7204;DHT22;3643;52.460;13.322;2023-03-26T17:02:34;9.40;99.90
7204;DHT22;3643;52.460;13.322;2023-03-26T17:05:17;9.30;99.90
7204;DHT22;3643;52.460;13.322;2023-03-26T17:07:52;9.20;99.90
7204;DHT22;3643;52.460;13.322;2023-03-26T17:10:29;9.10;99.90
7204;DHT22;3643;52.460;13.322;2023-03-26T17:13:05;9.00;99.90
7204;DHT22;3643;52.460;13.322;2023-03-26T17:15:42;9.00;99.90
7204;DHT22;3643;52.460;13.322;2023-03-26T17:18:23;8.80;99.90
7204;DHT22;3643;52.460;13.322;2023-03-26T17:21:01;8.70;99.90
7204;DHT22;3643;52.460;13.322;2023-03-26T17:23:41;8.70;99.90
7204;DHT22;3643;52.460;13.322;2023-03-26T17:26:19;8.60;99.90
7204;DHT22;3643;52.460;13.322;2023-03-26T17:29:00;8.50;99.90
7204;DHT22;3643;52.460;13.322;2023-03-26T17:31:40;8.50;99.90
7204;DHT22;3643;52.460;13.322;2023-03-26T17:34:33;8.40;99.90
7204;DHT22;3643;52.460;13.322;2023-03-26T17:37:09;8.30;99.90
7204;DHT22;3643;52.460;13.322;2023-03-26T17:43:08;8.30;99.90
7204;DHT22;3643;52.460;13.322;2023-03-26T17:45:40;8.20;99.90
7204;DHT22;3643;52.460;13.322;2023-03-26T17:48:15;8.20;99.90
7204;DHT22;3643;52.460;13.322;2023-03-26T17:50:49;8.20;99.90
7204;DHT22;3643;52.460;13.322;2023-03-26T17:53:22;8.20;99.90
7204;DHT22;3643;52.460;13.322;2023-03-26T17:55:52;8.30;99.90
7204;DHT22;3643;52.460;13.322;2023-03-26T17:58:26;8.30;99.90
7204;DHT22;3643;52.460;13.322;2023-03-26T18:01:03;8.30;99.90
7204;DHT22;3643;52.460;13.322;2023-03-26T18:03:35;8.30;99.90
7204;DHT22;3643;52.460;13.322;2023-03-26T18:06:12;8.40;99.90
7204;DHT22;3643;52.460;13.322;2023-03-26T18:08:57;8.40;99.90
7204;DHT22;3643;52.460;13.322;2023-03-26T18:11:56;8.40;99.90
7204;DHT22;3643;52.460;13.322;2023-03-26T18:17:30;8.40;99.90
7204;DHT22;3643;52.460;13.322;2023-03-26T18:20:16;8.40;99.90